Time;durP1;ratioP1;P1;durP2;ratioP2;P2;SDS_P1;SDS_P2;PMS_P1;PMS_P2;Temp;Humidity;BMP_temperature;BMP_pressure;BME280_temperature;BME280_humidity;BME280_pressure;Samples;Min_cycle;Max_cycle;Signal;HPM_P1;HPM_P2
2024/04/09 00:01:27;;;;;;;;;;;17.50;35.60;19.10;97560.00;;;;5410988;26;2353;-39
2024/04/09 00:04:00;;;;;;;;;;;17.40;35.80;19.20;97551.00;;;;5403758;26;2173;-39
2024/04/09 00:06:28;;;;;;;;;;;17.40;35.40;19.10;97537.00;;;;5415544;26;1841;-39
2024/04/09 00:08:58;;;;;;;;;;;17.50;35.20;19.20;97542.00;;;;5408440;26;2317;-38
2024/04/09 00:11:25;;;;;;;;;;;17.50;35.10;19.20;97533.00;;;;5406624;26;1874;-39
2024/04/09 00:13:58;;;;;;;;;;;17.50;34.90;19.20;97534.00;;;;5415640;26;2296;-38
2024/04/09 00:16:25;;;;;;;;;;;17.50;34.70;19.20;97511.00;;;;5409606;26;2368;-38
2024/04/09 00:19:02;;;;;;;;;;;17.50;34.60;19.20;97497.00;;;;5414621;26;2160;-38
2024/04/09 00:21:30;;;;;;;;;;;17.50;34.60;19.20;97485.00;;;;5406640;26;2207;-37
2024/04/09 00:24:00;;;;;;;;;;;17.60;34.50;19.20;97498.00;;;;5411055;26;2001;-38
2024/04/09 00:26:31;;;;;;;;;;;17.50;34.60;19.20;97489.00;;;;5406039;26;2433;-39
2024/04/09 00:29:02;;;;;;;;;;;17.50;35.10;19.10;97482.00;;;;5417824;26;1810;-38
2024/04/09 00:31:29;;;;;;;;;;;17.40;35.40;19.20;97485.00;;;;5420282;26;2191;-38
2024/04/09 00:34:02;;;;;;;;;;;17.40;35.00;19.20;97471.00;;;;5407082;26;2015;-38
2024/04/09 00:36:29;;;;;;;;;;;17.40;34.80;19.10;97484.00;;;;5409311;26;2174;-38
2024/04/09 00:39:00;;;;;;;;;;;17.40;34.80;19.20;97478.00;;;;5410941;26;2185;-38
2024/04/09 00:41:28;;;;;;;;;;;17.50;34.70;19.20;97483.00;;;;5405541;26;2228;-38
2024/04/09 00:43:57;;;;;;;;;;;17.50;34.60;19.20;97489.00;;;;5413665;26;2458;-37
2024/04/09 00:46:25;;;;;;;;;;;17.50;34.50;19.20;97493.00;;;;5409460;26;2182;-38
2024/04/09 00:48:55;;;;;;;;;;;17.50;34.40;19.20;97456.00;;;;5409734;26;2232;-37
2024/04/09 00:51:27;;;;;;;;;;;17.50;34.30;19.20;97444.00;;;;5408490;26;2289;-40
2024/04/09 00:53:57;;;;;;;;;;;17.50;34.80;19.10;97443.00;;;;5406513;26;2208;-38
2024/04/09 00:56:25;;;;;;;;;;;17.40;35.10;19.10;97445.00;;;;5414273;26;2405;-39
2024/04/09 00:58:55;;;;;;;;;;;17.40;35.70;19.00;97445.00;;;;5409679;26;2357;-39
2024/04/09 01:01:26;;;;;;;;;;;17.30;36.00;19.00;97446.00;;;;5407334;26;2196;-39
2024/04/09 01:03:57;;;;;;;;;;;17.30;36.20;19.00;97461.00;;;;5413631;26;2417;-39
2024/04/09 01:06:27;;;;;;;;;;;17.20;36.40;19.00;97457.00;;;;5407293;26;2510;-39
2024/04/09 01:08:57;;;;;;;;;;;17.30;36.20;19.00;97461.00;;;;5409308;26;2303;-38
2024/04/09 01:11:25;;;;;;;;;;;17.30;35.70;19.00;97458.00;;;;5409201;26;2137;-38
2024/04/09 01:13:55;;;;;;;;;;;17.30;35.50;19.00;97459.00;;;;5409717;26;2196;-38
2024/04/09 01:16:22;;;;;;;;;;;17.40;35.40;19.10;97483.00;;;;5411962;26;2318;-38
2024/04/09 01:18:52;;;;;;;;;;;17.40;35.20;19.10;97461.00;;;;5407000;26;2464;-39
2024/04/09 01:21:20;;;;;;;;;;;17.40;35.00;19.10;97462.00;;;;5410247;26;2691;-38
2024/04/09 01:23:53;;;;;;;;;;;17.40;35.50;19.10;97464.00;;;;5413646;26;2229;-38
2024/04/09 01:26:20;;;;;;;;;;;17.50;34.70;19.10;97478.00;;;;5409650;26;2302;-38
2024/04/09 01:28:50;;;;;;;;;;;17.50;34.80;19.10;97501.00;;;;5412955;26;2219;-38
2024/04/09 01:31:18;;;;;;;;;;;17.40;35.00;19.10;97490.00;;;;5412600;26;2173;-38
2024/04/09 01:34:09;;;;;;;;;;;17.40;35.40;19.00;97492.00;;;;5419443;26;2253;-38
2024/04/09 01:36:37;;;;;;;;;;;17.40;35.50;19.10;97479.00;;;;5411167;26;2184;-38
2024/04/09 01:39:10;;;;;;;;;;;17.40;35.10;19.10;97476.00;;;;5404025;26;2167;-39
2024/04/09 01:41:39;;;;;;;;;;;17.40;35.00;19.10;97484.00;;;;5402125;26;2167;-38
2024/04/09 01:44:09;;;;;;;;;;;17.40;34.80;19.10;97487.00;;;;5409130;26;2173;-38
2024/04/09 01:46:37;;;;;;;;;;;17.40;34.80;19.10;97494.00;;;;5409661;26;2592;-38
2024/04/09 01:49:08;;;;;;;;;;;17.40;34.60;19.20;97499.00;;;;5412892;26;1965;-39
2024/04/09 01:51:35;;;;;;;;;;;17.40;34.50;19.10;97481.00;;;;5414440;26;2332;-38
2024/04/09 01:54:05;;;;;;;;;;;17.50;34.40;19.10;97486.00;;;;5408818;26;2396;-38
2024/04/09 01:56:35;;;;;;;;;;;17.50;34.50;19.10;97475.00;;;;5410961;26;2348;-39
2024/04/09 01:59:05;;;;;;;;;;;17.40;35.00;19.00;97479.00;;;;5407874;26;2385;-39
2024/04/09 02:01:33;;;;;;;;;;;17.40;35.50;19.00;97480.00;;;;5413663;26;2342;-38
2024/04/09 02:04:03;;;;;;;;;;;17.30;35.50;19.10;97483.00;;;;5402211;26;2363;-39
2024/04/09 02:06:31;;;;;;;;;;;17.40;35.30;19.10;97482.00;;;;5407830;26;2206;-38
2024/04/09 02:09:02;;;;;;;;;;;17.40;35.10;19.10;97492.00;;;;5405809;26;2338;-38
2024/04/09 02:11:30;;;;;;;;;;;17.40;34.90;19.10;97486.00;;;;5412382;26;2193;-37
2024/04/09 02:14:04;;;;;;;;;;;17.40;34.80;19.10;97478.00;;;;5411156;26;2382;-38
2024/04/09 02:16:31;;;;;;;;;;;17.50;34.70;19.10;97483.00;;;;5409156;26;2184;-38
2024/04/09 02:19:02;;;;;;;;;;;17.50;34.50;19.20;97500.00;;;;5409139;26;2529;-38
2024/04/09 02:21:31;;;;;;;;;;;17.50;34.40;19.20;97490.00;;;;5413642;26;2157;-39
2024/04/09 02:24:01;;;;;;;;;;;17.50;34.30;19.10;97486.00;;;;5409383;26;2218;-38
2024/04/09 02:26:29;;;;;;;;;;;17.50;34.60;19.10;97482.00;;;;5409939;26;2220;-39
2024/04/09 02:28:59;;;;;;;;;;;17.40;35.00;19.10;97474.00;;;;5406801;26;2438;-38
2024/04/09 02:31:29;;;;;;;;;;;17.30;35.30;19.10;97443.00;;;;5407480;26;2374;-38
2024/04/09 02:33:59;;;;;;;;;;;17.40;35.00;19.10;97470.00;;;;5404979;26;2229;-38
2024/04/09 02:36:27;;;;;;;;;;;17.40;34.80;19.10;97474.00;;;;5411602;26;2134;-38
2024/04/09 02:38:57;;;;;;;;;;;17.40;34.80;19.10;97470.00;;;;5408969;26;2549;-39
2024/04/09 02:41:24;;;;;;;;;;;17.40;34.60;19.10;97462.00;;;;5411486;26;2370;-39
2024/04/09 02:43:54;;;;;;;;;;;17.40;34.50;19.10;97459.00;;;;5407472;26;2189;-38
2024/04/09 02:46:22;;;;;;;;;;;17.40;34.40;19.10;97452.00;;;;5407066;26;2229;-38
2024/04/09 02:48:55;;;;;;;;;;;17.40;34.30;19.10;97458.00;;;;5403940;26;2388;-39
2024/04/09 02:51:22;;;;;;;;;;;17.50;34.20;19.10;97454.00;;;;5408810;26;2652;-38
2024/04/09 02:53:53;;;;;;;;;;;17.40;34.70;19.00;97442.00;;;;5409198;26;1998;-39
2024/04/09 02:56:20;;;;;;;;;;;17.40;35.20;19.00;97452.00;;;;5407104;26;2163;-38
2024/04/09 02:58:50;;;;;;;;;;;17.30;35.50;19.00;97452.00;;;;5405417;26;1736;-38
2024/04/09 03:01:18;;;;;;;;;;;17.30;36.00;18.90;97457.00;;;;5410368;26;2010;-39
2024/04/09 03:03:49;;;;;;;;;;;17.20;36.10;18.90;97453.00;;;;5411714;26;2279;-38
2024/04/09 03:06:19;;;;;;;;;;;17.20;36.40;18.90;97446.00;;;;5407445;26;2225;-38
2024/04/09 03:08:50;;;;;;;;;;;17.20;36.00;19.00;97456.00;;;;5402478;26;2505;-39
2024/04/09 03:11:18;;;;;;;;;;;17.20;35.60;19.00;97448.00;;;;5409147;26;2333;-38
2024/04/09 03:13:49;;;;;;;;;;;17.30;35.50;19.00;97447.00;;;;5409705;26;1716;-38
2024/04/09 03:16:17;;;;;;;;;;;17.30;35.30;19.00;97445.00;;;;5410292;26;1825;-39
2024/04/09 03:18:47;;;;;;;;;;;17.30;35.10;19.00;97451.00;;;;5411056;26;2324;-39
2024/04/09 03:21:15;;;;;;;;;;;17.40;35.00;19.00;97464.00;;;;5417354;26;2418;-38
2024/04/09 03:23:47;;;;;;;;;;;17.40;34.90;19.00;97447.00;;;;5411087;26;2155;-38
2024/04/09 03:26:15;;;;;;;;;;;17.40;34.70;19.00;97444.00;;;;5412295;26;2173;-38
2024/04/09 03:28:45;;;;;;;;;;;17.40;34.60;19.00;97436.00;;;;5408099;26;2384;-38
2024/04/09 03:31:12;;;;;;;;;;;17.40;35.00;19.00;97446.00;;;;5409435;26;2023;-38
2024/04/09 03:33:42;;;;;;;;;;;17.30;35.50;19.00;97450.00;;;;5400641;26;2993;-38
2024/04/09 03:36:10;;;;;;;;;;;17.30;35.50;19.00;97455.00;;;;5403357;26;2230;-39
2024/04/09 03:38:40;;;;;;;;;;;17.30;35.10;19.00;97444.00;;;;5407423;26;2109;-38
2024/04/09 03:41:12;;;;;;;;;;;17.30;34.90;19.00;97443.00;;;;5404266;26;2989;-39
2024/04/09 03:43:42;;;;;;;;;;;17.30;34.80;19.00;97443.00;;;;5400267;26;2728;-39
2024/04/09 03:46:10;;;;;;;;;;;17.30;34.70;19.00;97451.00;;;;5391320;26;2216;-39
2024/04/09 03:48:42;;;;;;;;;;;17.30;34.60;19.00;97454.00;;;;5395383;26;2596;-38
2024/04/09 03:51:10;;;;;;;;;;;17.40;34.60;19.00;97448.00;;;;5399497;26;2268;-39
2024/04/09 03:53:40;;;;;;;;;;;17.40;34.40;19.00;97456.00;;;;5398615;26;2316;-38
2024/04/09 03:56:10;;;;;;;;;;;17.40;34.30;19.00;97459.00;;;;5403471;26;2508;-38
2024/04/09 03:58:41;;;;;;;;;;;17.30;35.10;18.90;97431.00;;;;5397137;26;2374;-38
2024/04/09 04:01:08;;;;;;;;;;;17.30;35.40;18.90;97454.00;;;;5400314;26;2325;-39
2024/04/09 04:03:41;;;;;;;;;;;17.20;35.60;18.90;97455.00;;;;5387055;26;2613;-38
2024/04/09 04:06:09;;;;;;;;;;;17.20;35.20;19.00;97456.00;;;;5398825;26;2415;-39
2024/04/09 04:08:40;;;;;;;;;;;17.30;35.10;19.00;97463.00;;;;5394324;26;2359;-38
2024/04/09 04:11:12;;;;;;;;;;;17.30;34.90;19.00;97476.00;;;;5395257;26;2543;-38
2024/04/09 04:13:43;;;;;;;;;;;17.30;35.30;19.00;97466.00;;;;5385849;26;2192;-38
2024/04/09 04:16:12;;;;;;;;;;;17.30;34.60;19.00;97469.00;;;;5398351;26;2501;-39
2024/04/09 04:18:42;;;;;;;;;;;17.40;34.50;19.00;97463.00;;;;5392471;26;2264;-39
2024/04/09 04:21:12;;;;;;;;;;;17.40;34.40;19.10;97469.00;;;;5383810;26;2172;-39
2024/04/09 04:23:42;;;;;;;;;;;17.40;34.40;19.00;97457.00;;;;5395649;26;2082;-38
2024/04/09 04:26:13;;;;;;;;;;;17.30;34.60;19.00;97456.00;;;;5392196;26;1954;-38
2024/04/09 04:28:43;;;;;;;;;;;17.30;35.00;18.90;97452.00;;;;5397085;26;2020;-38
2024/04/09 04:31:11;;;;;;;;;;;17.20;35.20;18.90;97453.00;;;;5393692;26;2173;-39
2024/04/09 04:33:41;;;;;;;;;;;17.20;34.90;19.00;97462.00;;;;5393310;26;2437;-38
2024/04/09 04:36:10;;;;;;;;;;;17.30;34.90;19.00;97466.00;;;;5392943;26;2433;-43
2024/04/09 04:38:44;;;;;;;;;;;17.30;34.70;18.90;97483.00;;;;5393275;26;2510;-38
2024/04/09 04:41:14;;;;;;;;;;;17.30;34.50;19.00;97482.00;;;;5390329;26;2263;-38
2024/04/09 04:43:44;;;;;;;;;;;17.30;34.40;18.90;97479.00;;;;5398580;26;2234;-38
2024/04/09 04:46:12;;;;;;;;;;;17.30;34.30;19.00;97480.00;;;;5407658;26;1988;-39
2024/04/09 04:48:43;;;;;;;;;;;17.30;34.20;19.00;97466.00;;;;5409085;26;2384;-38
2024/04/09 04:51:10;;;;;;;;;;;17.30;34.20;18.90;97473.00;;;;5400935;26;2502;-38
2024/04/09 04:53:40;;;;;;;;;;;17.30;34.70;18.90;97471.00;;;;5399455;26;2304;-38
2024/04/09 04:56:08;;;;;;;;;;;17.30;35.10;18.90;97472.00;;;;5388926;26;2038;-38
2024/04/09 04:58:41;;;;;;;;;;;17.20;35.50;18.80;97475.00;;;;5395783;26;2207;-38
2024/04/09 05:01:09;;;;;;;;;;;17.20;35.90;18.80;97482.00;;;;5403096;26;2265;-39
2024/04/09 05:03:39;;;;;;;;;;;17.10;36.10;18.80;97499.00;;;;5395159;26;2183;-38
2024/04/09 05:06:07;;;;;;;;;;;17.10;36.40;18.80;97492.00;;;;5400994;26;2352;-38
2024/04/09 05:08:38;;;;;;;;;;;17.10;36.10;18.80;97487.00;;;;5398475;26;2183;-37
2024/04/09 05:11:08;;;;;;;;;;;17.10;35.70;18.80;97494.00;;;;5397379;26;2237;-39
2024/04/09 05:13:41;;;;;;;;;;;17.20;35.50;18.80;97481.00;;;;5393621;26;2345;-39
2024/04/09 05:16:08;;;;;;;;;;;17.20;35.20;18.90;97484.00;;;;5397225;26;2269;-39
2024/04/09 05:18:38;;;;;;;;;;;17.20;35.10;18.90;97478.00;;;;5397832;26;2494;-39
2024/04/09 05:21:05;;;;;;;;;;;17.30;34.90;18.90;97487.00;;;;5394453;26;3170;-39
2024/04/09 05:23:35;;;;;;;;;;;17.30;34.80;18.90;97501.00;;;;5398165;26;1973;-38
2024/04/09 05:26:03;;;;;;;;;;;17.30;34.70;18.90;97502.00;;;;5391421;26;2568;-38
2024/04/09 05:28:33;;;;;;;;;;;17.30;34.60;18.90;97486.00;;;;5391348;26;2390;-38
2024/04/09 05:31:03;;;;;;;;;;;17.30;35.00;18.90;97500.00;;;;5390970;26;2000;-38
2024/04/09 05:33:33;;;;;;;;;;;17.20;35.30;18.80;97500.00;;;;5392500;26;2184;-39
2024/04/09 05:36:00;;;;;;;;;;;17.20;35.50;18.90;97516.00;;;;5390912;26;2197;-39
2024/04/09 05:38:30;;;;;;;;;;;17.20;35.10;18.90;97499.00;;;;5391146;26;2581;-39
2024/04/09 05:41:00;;;;;;;;;;;17.20;34.90;18.90;97504.00;;;;5397075;26;2668;-38
2024/04/09 05:43:30;;;;;;;;;;;17.30;34.90;18.90;97517.00;;;;5386702;26;2227;-38
2024/04/09 05:45:58;;;;;;;;;;;17.30;34.80;19.00;97518.00;;;;5381565;26;2172;-38
2024/04/09 05:48:30;;;;;;;;;;;17.30;34.60;18.90;97515.00;;;;5391129;26;2198;-39
2024/04/09 05:50:58;;;;;;;;;;;17.30;34.50;19.00;97525.00;;;;5396434;26;2346;-39
2024/04/09 05:53:28;;;;;;;;;;;17.30;34.40;19.00;97525.00;;;;5393372;26;2245;-39
2024/04/09 05:55:55;;;;;;;;;;;17.40;34.30;19.00;97524.00;;;;5390704;26;2420;-38
2024/04/09 05:58:26;;;;;;;;;;;17.30;34.50;18.90;97535.00;;;;5392860;26;2359;-39
2024/04/09 06:00:55;;;;;;;;;;;17.30;35.00;18.80;97538.00;;;;5400338;26;2326;-39
2024/04/09 06:03:25;;;;;;;;;;;17.20;35.30;18.90;97557.00;;;;5389811;26;2199;-38
2024/04/09 06:05:57;;;;;;;;;;;17.20;35.10;18.90;97553.00;;;;5389479;26;2221;-39
2024/04/09 06:08:27;;;;;;;;;;;17.20;34.80;19.00;97568.00;;;;5388480;26;2517;-39
2024/04/09 06:10:54;;;;;;;;;;;17.30;34.70;19.00;97561.00;;;;5395323;26;2184;-39
2024/04/09 06:13:24;;;;;;;;;;;17.30;34.60;19.00;97576.00;;;;5393817;26;2118;-39
2024/04/09 06:15:51;;;;;;;;;;;17.30;34.50;19.00;97574.00;;;;5393486;26;2362;-38
2024/04/09 06:18:21;;;;;;;;;;;17.30;34.40;19.00;97580.00;;;;5399406;26;1997;-38
2024/04/09 06:20:49;;;;;;;;;;;17.30;34.20;19.00;97591.00;;;;5383005;26;2271;-38
2024/04/09 06:23:22;;;;;;;;;;;17.40;34.20;19.00;97583.00;;;;5391562;26;2311;-38
2024/04/09 06:25:53;;;;;;;;;;;17.40;34.40;19.00;97582.00;;;;5393009;26;2340;-38
2024/04/09 06:28:23;;;;;;;;;;;17.30;34.80;18.90;97584.00;;;;5394659;26;2446;-38
2024/04/09 06:30:53;;;;;;;;;;;17.20;35.10;19.00;97588.00;;;;5394077;26;2744;-38
2024/04/09 06:33:20;;;;;;;;;;;17.30;34.90;19.00;97581.00;;;;5400708;26;2427;-38
2024/04/09 06:35:51;;;;;;;;;;;17.30;34.80;19.00;97593.00;;;;5392058;26;2251;-39
2024/04/09 06:38:21;;;;;;;;;;;17.30;34.80;19.00;97594.00;;;;5393891;26;2060;-39
2024/04/09 06:40:53;;;;;;;;;;;17.30;35.10;19.00;97588.00;;;;5397330;26;2196;-39
2024/04/09 06:43:21;;;;;;;;;;;17.30;34.30;19.00;97593.00;;;;5388518;26;2337;-39
2024/04/09 06:45:51;;;;;;;;;;;17.40;34.30;19.00;97602.00;;;;5383428;26;2342;-39
2024/04/09 06:48:21;;;;;;;;;;;17.40;34.20;19.10;97611.00;;;;5382233;26;2485;-38
2024/04/09 06:50:49;;;;;;;;;;;17.40;34.10;19.00;97609.00;;;;5384625;26;2241;-38
2024/04/09 06:53:18;;;;;;;;;;;17.40;34.40;19.00;97605.00;;;;5385803;26;2372;-39
2024/04/09 06:55:49;;;;;;;;;;;17.40;34.90;19.00;97606.00;;;;5388910;26;2426;-38
2024/04/09 06:58:19;;;;;;;;;;;17.30;35.20;18.90;97617.00;;;;5395819;26;2504;-39
2024/04/09 07:00:47;;;;;;;;;;;17.30;35.80;18.90;97627.00;;;;5402855;26;2317;-37
2024/04/09 07:03:17;;;;;;;;;;;17.20;35.90;18.90;97635.00;;;;5396677;26;2260;-38
2024/04/09 07:05:45;;;;;;;;;;;17.20;36.20;18.90;97631.00;;;;5390860;26;1984;-38
2024/04/09 07:08:15;;;;;;;;;;;17.20;36.20;18.90;97635.00;;;;5395854;26;2281;-38
2024/04/09 07:10:42;;;;;;;;;;;17.20;35.50;19.00;97646.00;;;;5383849;26;2192;-38
2024/04/09 07:13:14;;;;;;;;;;;17.30;35.40;19.00;97636.00;;;;5399016;26;2021;-39
2024/04/09 07:15:42;;;;;;;;;;;17.40;35.30;19.10;97638.00;;;;5393325;26;2279;-38
2024/04/09 07:18:13;;;;;;;;;;;17.40;35.10;19.10;97635.00;;;;5398748;26;1998;-38
2024/04/09 07:20:40;;;;;;;;;;;17.50;35.00;19.10;97634.00;;;;5397919;26;2137;-38
2024/04/09 07:23:10;;;;;;;;;;;17.50;34.70;19.20;97648.00;;;;5392762;26;2226;-39
2024/04/09 07:25:39;;;;;;;;;;;17.50;34.50;19.20;97657.00;;;;5391906;26;1886;-38
2024/04/09 07:28:09;;;;;;;;;;;17.50;34.40;19.20;97656.00;;;;5397411;26;2182;-38
2024/04/09 07:30:39;;;;;;;;;;;17.50;34.70;19.20;97652.00;;;;5396390;26;1978;-37
2024/04/09 07:33:09;;;;;;;;;;;17.50;35.00;19.20;97650.00;;;;5396492;26;2465;-38
2024/04/09 07:35:37;;;;;;;;;;;17.50;35.30;19.20;97655.00;;;;5390944;26;2311;-37
2024/04/09 07:38:07;;;;;;;;;;;17.50;35.00;19.20;97650.00;;;;5401807;26;2035;-37
2024/04/09 07:40:34;;;;;;;;;;;17.50;34.80;19.20;97649.00;;;;5396995;26;2349;-38
2024/04/09 07:43:04;;;;;;;;;;;17.50;34.60;19.20;97650.00;;;;5397158;26;2276;-38
2024/04/09 07:45:31;;;;;;;;;;;17.60;34.60;19.30;97642.00;;;;5405072;26;2328;-38
2024/04/09 07:48:04;;;;;;;;;;;17.60;34.50;19.30;97650.00;;;;5399523;26;2293;-38
2024/04/09 07:50:32;;;;;;;;;;;17.60;34.30;19.30;97653.00;;;;5395281;26;2190;-38
2024/04/09 07:53:02;;;;;;;;;;;17.60;34.20;19.30;97665.00;;;;5393762;26;2439;-38
2024/04/09 07:55:29;;;;;;;;;;;17.70;34.20;19.30;97673.00;;;;5390307;26;1968;-38
2024/04/09 07:57:59;;;;;;;;;;;17.70;34.70;19.30;97674.00;;;;5393377;26;2120;-38
2024/04/09 08:00:26;;;;;;;;;;;17.60;35.10;19.30;97674.00;;;;5391208;26;2338;-37
2024/04/09 08:02:56;;;;;;;;;;;17.60;35.40;19.40;97671.00;;;;5400948;26;2097;-38
2024/04/09 08:05:28;;;;;;;;;;;17.60;35.30;19.40;97677.00;;;;5399768;26;2376;-37
2024/04/09 08:07:58;;;;;;;;;;;17.70;34.90;19.40;97683.00;;;;5398879;26;2041;-38
2024/04/09 08:10:26;;;;;;;;;;;17.70;34.80;19.40;97694.00;;;;5391139;26;2236;-38
2024/04/09 08:12:57;;;;;;;;;;;17.70;34.50;19.50;97706.00;;;;5392497;26;2221;-38
2024/04/09 08:15:25;;;;;;;;;;;17.80;34.40;19.50;97715.00;;;;5390873;26;2357;-38
2024/04/09 08:17:55;;;;;;;;;;;17.80;34.40;19.50;97717.00;;;;5392007;26;2346;-38
2024/04/09 08:20:23;;;;;;;;;;;17.80;34.20;19.60;97719.00;;;;5391261;26;2300;-38
2024/04/09 08:22:56;;;;;;;;;;;17.90;34.20;19.60;97727.00;;;;5397885;26;1962;-38
2024/04/09 08:25:23;;;;;;;;;;;17.90;34.20;19.60;97726.00;;;;5392277;26;1997;-38
2024/04/09 08:27:54;;;;;;;;;;;17.90;34.40;19.60;97730.00;;;;5392202;26;2199;-37
2024/04/09 08:30:23;;;;;;;;;;;17.90;34.90;19.60;97725.00;;;;5395363;26;2221;-37
2024/04/09 08:32:55;;;;;;;;;;;17.80;34.70;19.60;97728.00;;;;5403991;26;1577;-38
2024/04/09 08:35:22;;;;;;;;;;;17.90;34.60;19.60;97733.00;;;;5401083;26;2236;-38
2024/04/09 08:37:56;;;;;;;;;;;17.90;34.40;19.60;97720.00;;;;5400120;26;2198;-39
2024/04/09 08:40:24;;;;;;;;;;;17.90;34.30;19.70;97738.00;;;;5400537;26;2325;-39
2024/04/09 08:42:55;;;;;;;;;;;18.00;34.20;19.70;97728.00;;;;5392651;26;2168;-37
2024/04/09 08:45:25;;;;;;;;;;;18.00;34.10;19.70;97760.00;;;;5408204;26;2117;-38
2024/04/09 08:47:55;;;;;;;;;;;18.00;34.00;19.70;97760.00;;;;5405336;26;2302;-38
2024/04/09 08:50:23;;;;;;;;;;;18.00;33.90;19.80;97759.00;;;;5388717;26;2162;-38
2024/04/09 08:52:57;;;;;;;;;;;18.10;34.20;19.80;97759.00;;;;5394161;26;1973;-38
2024/04/09 08:55:24;;;;;;;;;;;18.10;35.00;19.80;97765.00;;;;5398058;26;2101;-38
2024/04/09 08:57:55;;;;;;;;;;;18.00;35.10;19.80;97765.00;;;;5389760;26;2390;-37
2024/04/09 09:00:23;;;;;;;;;;;18.10;35.40;19.80;97760.00;;;;5401592;26;2217;-38
2024/04/09 09:02:53;;;;;;;;;;;18.00;35.70;19.80;97762.00;;;;5402296;26;2341;-38
2024/04/09 09:05:22;;;;;;;;;;;18.00;36.10;19.80;97759.00;;;;5377134;26;2486;-39
2024/04/09 09:08:05;;;;;;;;;;;18.00;36.00;19.80;97771.00;;;;5390627;26;2246;-38
2024/04/09 09:10:34;;;;;;;;;;;18.00;35.30;19.80;97787.00;;;;5395198;26;2332;-38
2024/04/09 09:13:06;;;;;;;;;;;18.00;35.00;19.80;97796.00;;;;5386222;26;2298;-37
2024/04/09 09:15:34;;;;;;;;;;;18.00;34.90;19.80;97811.00;;;;5401800;26;1666;-37
2024/04/09 09:18:04;;;;;;;;;;;18.00;34.70;19.80;97814.00;;;;5377561;26;2264;-37
2024/04/09 09:20:32;;;;;;;;;;;18.10;34.60;19.90;97822.00;;;;5395669;26;2195;-38
2024/04/09 09:23:04;;;;;;;;;;;18.10;34.50;19.90;97826.00;;;;5391813;26;2399;-38
2024/04/09 09:25:34;;;;;;;;;;;18.10;34.40;19.90;97825.00;;;;5378483;26;2308;-38
2024/04/09 09:28:07;;;;;;;;;;;18.20;34.40;19.90;97822.00;;;;5382670;26;1802;-38
2024/04/09 09:30:39;;;;;;;;;;;18.10;35.00;19.80;97823.00;;;;5379107;26;2328;-37
2024/04/09 09:33:14;;;;;;;;;;;18.10;35.30;19.90;97827.00;;;;5393422;26;2224;-38
2024/04/09 09:35:44;;;;;;;;;;;18.10;35.50;19.90;97833.00;;;;5393020;26;2228;-38
2024/04/09 09:38:17;;;;;;;;;;;18.10;35.00;19.90;97817.00;;;;5394077;26;2185;-38
2024/04/09 09:40:45;;;;;;;;;;;18.10;34.80;19.90;97811.00;;;;5403484;26;2354;-37
2024/04/09 09:43:17;;;;;;;;;;;18.10;34.70;19.90;97832.00;;;;5392444;26;1987;-38
2024/04/09 09:45:44;;;;;;;;;;;18.10;34.60;19.90;97848.00;;;;5388194;26;2207;-38
2024/04/09 09:48:15;;;;;;;;;;;18.10;35.00;19.90;97857.00;;;;5387410;26;2162;-38
2024/04/09 09:50:42;;;;;;;;;;;18.20;34.40;20.00;97865.00;;;;5397532;26;2395;-37
2024/04/09 09:53:12;;;;;;;;;;;18.20;34.30;20.00;97863.00;;;;5394021;26;1984;-39
2024/04/09 09:55:46;;;;;;;;;;;18.20;34.20;19.90;97860.00;;;;5406085;26;2193;-38
2024/04/09 09:58:18;;;;;;;;;;;18.20;34.90;19.90;97857.00;;;;5384134;26;2168;-38
2024/04/09 10:00:46;;;;;;;;;;;18.10;35.00;19.90;97861.00;;;;5404964;26;1660;-38
2024/04/09 10:03:17;;;;;;;;;;;18.10;35.20;19.90;97864.00;;;;5396565;26;2339;-38
2024/04/09 10:05:45;;;;;;;;;;;18.10;35.00;19.90;97870.00;;;;5390477;26;3241;-37
2024/04/09 10:08:20;;;;;;;;;;;18.10;34.80;19.90;97883.00;;;;5408896;26;1951;-38
2024/04/09 10:10:50;;;;;;;;;;;18.10;34.60;20.00;97905.00;;;;5402311;26;2016;-38
2024/04/09 10:13:23;;;;;;;;;;;18.20;34.60;20.00;97909.00;;;;5406460;26;2244;-38
2024/04/09 10:15:55;;;;;;;;;;;18.20;34.50;20.00;97914.00;;;;5403619;26;2212;-38
2024/04/09 10:18:34;;;;;;;;;;;18.20;34.30;20.00;97913.00;;;;5408611;26;1582;-38
2024/04/09 10:21:03;;;;;;;;;;;18.20;34.20;20.00;97931.00;;;;5394955;26;2191;-38
2024/04/09 10:23:37;;;;;;;;;;;18.20;34.10;20.00;97926.00;;;;5402289;26;2315;-37
2024/04/09 10:26:08;;;;;;;;;;;18.20;34.80;20.00;97918.00;;;;5409453;26;2192;-37
2024/04/09 10:28:39;;;;;;;;;;;18.20;35.00;20.00;97915.00;;;;5397185;26;2175;-37
2024/04/09 10:31:08;;;;;;;;;;;18.20;35.20;20.00;97927.00;;;;5399434;26;2321;-38
2024/04/09 10:33:40;;;;;;;;;;;18.20;35.30;20.00;97922.00;;;;5404895;26;2171;-39
2024/04/09 10:36:10;;;;;;;;;;;18.20;34.90;20.00;97936.00;;;;5398230;26;2044;-38
2024/04/09 10:38:43;;;;;;;;;;;18.20;34.70;20.00;97944.00;;;;5399797;26;2338;-38
2024/04/09 10:41:14;;;;;;;;;;;18.20;34.60;20.00;97943.00;;;;5407869;26;2062;-38
2024/04/09 10:43:46;;;;;;;;;;;18.20;34.40;20.00;97950.00;;;;5404578;26;2279;-38
2024/04/09 10:46:18;;;;;;;;;;;18.20;34.30;20.00;97949.00;;;;5407526;26;2029;-38
2024/04/09 10:48:48;;;;;;;;;;;18.30;34.20;20.00;97954.00;;;;5393996;26;1582;-38
2024/04/09 10:51:16;;;;;;;;;;;18.30;34.20;20.00;97959.00;;;;5408025;26;2210;-37
2024/04/09 10:53:51;;;;;;;;;;;18.30;34.20;20.00;97952.00;;;;5403654;26;2181;-37
2024/04/09 10:56:21;;;;;;;;;;;18.30;34.30;20.00;97966.00;;;;5389415;26;2326;-37
2024/04/09 10:58:51;;;;;;;;;;;18.30;34.60;20.00;97976.00;;;;5387114;26;2086;-38
2024/04/09 11:01:19;;;;;;;;;;;18.20;34.90;20.00;97985.00;;;;5388793;26;1761;-39
2024/04/09 11:03:49;;;;;;;;;;;18.10;35.00;19.90;97991.00;;;;5399767;26;2227;-38
2024/04/09 11:06:16;;;;;;;;;;;18.10;35.40;19.90;97986.00;;;;5393340;26;2128;-38
2024/04/09 11:08:47;;;;;;;;;;;18.10;35.60;19.90;98001.00;;;;5395058;26;2220;-37
2024/04/09 11:11:15;;;;;;;;;;;18.10;35.30;20.00;97995.00;;;;5396768;26;2225;-38
2024/04/09 11:13:47;;;;;;;;;;;18.10;35.10;20.00;98014.00;;;;5401986;26;2228;-38
2024/04/09 11:16:17;;;;;;;;;;;18.10;34.90;19.90;98025.00;;;;5387852;26;2437;-37
2024/04/09 11:18:58;;;;;;;;;;;18.10;34.80;20.00;98046.00;;;;5398940;26;2179;-38
2024/04/09 11:21:27;;;;;;;;;;;18.20;34.70;20.00;98059.00;;;;5405604;26;2170;-38
2024/04/09 11:23:57;;;;;;;;;;;18.20;34.60;19.90;98076.00;;;;5405237;26;2334;-38
2024/04/09 11:26:25;;;;;;;;;;;18.20;34.50;19.90;98083.00;;;;5406516;26;2000;-37
2024/04/09 11:28:58;;;;;;;;;;;18.20;34.60;20.00;98085.00;;;;5404592;26;1977;-37
2024/04/09 11:31:25;;;;;;;;;;;18.10;35.00;19.90;98100.00;;;;5399582;26;2057;-38
2024/04/09 11:33:55;;;;;;;;;;;18.20;35.20;19.90;98113.00;;;;5386271;26;2265;-37
2024/04/09 11:36:23;;;;;;;;;;;18.10;35.30;19.90;98112.00;;;;5391309;26;1759;-37
2024/04/09 11:39:00;;;;;;;;;;;18.20;35.30;20.00;98128.00;;;;5399575;26;2461;-38
2024/04/09 11:41:28;;;;;;;;;;;18.10;34.90;20.00;98137.00;;;;5387508;26;2281;-39
2024/04/09 11:44:02;;;;;;;;;;;18.10;34.80;19.90;98148.00;;;;5394140;26;2300;-38
2024/04/09 11:46:29;;;;;;;;;;;18.20;34.70;20.00;98155.00;;;;5393232;26;2318;-38
2024/04/09 11:48:59;;;;;;;;;;;18.20;34.60;20.00;98159.00;;;;5394818;26;1976;-38
2024/04/09 11:51:30;;;;;;;;;;;18.20;34.50;20.00;98147.00;;;;5389830;26;1880;-37
2024/04/09 11:54:00;;;;;;;;;;;18.20;34.40;20.00;98146.00;;;;5388010;26;2177;-37
2024/04/09 11:56:32;;;;;;;;;;;18.20;34.40;20.00;98153.00;;;;5384778;26;2396;-37
2024/04/09 11:59:04;;;;;;;;;;;18.20;35.10;20.00;98158.00;;;;5403281;26;2346;-37
2024/04/09 12:01:31;;;;;;;;;;;18.20;35.20;20.00;98162.00;;;;5390115;26;2197;-37
2024/04/09 12:04:02;;;;;;;;;;;18.10;35.30;20.00;98165.00;;;;5398899;26;2230;-37
2024/04/09 12:06:29;;;;;;;;;;;18.20;35.20;20.00;98168.00;;;;5399731;26;2183;-38
2024/04/09 12:08:59;;;;;;;;;;;18.20;34.90;20.00;98173.00;;;;5410143;26;1670;-38
2024/04/09 12:11:27;;;;;;;;;;;18.20;34.80;20.00;98193.00;;;;5392274;26;2520;-37
2024/04/09 12:13:57;;;;;;;;;;;18.20;34.60;20.00;98203.00;;;;5390778;26;2522;-38
2024/04/09 12:16:27;;;;;;;;;;;18.20;34.60;20.00;98206.00;;;;5409015;26;2395;-38
2024/04/09 12:18:57;;;;;;;;;;;18.20;34.50;20.00;98218.00;;;;5406633;26;2213;-38
2024/04/09 12:21:24;;;;;;;;;;;18.20;34.30;20.00;98233.00;;;;5394980;26;2082;-38